createdAt,value
2023-01-01T05:16:26.284Z,7.88
2023-01-01T05:18:53.065Z,7.84
2023-01-01T05:21:22.187Z,7.77
2023-01-01T05:23:49.422Z,8.00
2023-01-01T05:26:23.286Z,7.78
2023-01-01T05:28:50.160Z,7.93
2023-01-01T05:31:22.660Z,7.65
2023-01-01T05:33:50.268Z,8.02
2023-01-01T05:36:22.876Z,7.83
2023-01-01T05:38:50.990Z,7.78
2023-01-01T05:41:19.154Z,7.98
2023-01-01T05:43:46.800Z,8.24
2023-01-01T05:46:17.203Z,8.40
2023-01-01T05:48:45.271Z,8.16
2023-01-01T05:51:15.448Z,8.34
2023-01-01T05:53:42.730Z,8.50
2023-01-01T05:56:09.769Z,8.59
2023-01-01T05:58:37.664Z,8.52
2023-01-01T06:01:16.314Z,8.29
2023-01-01T06:03:44.130Z,8.41
2023-01-01T06:06:17.249Z,7.76
2023-01-01T06:08:51.857Z,7.95
2023-01-01T06:11:43.536Z,7.74
2023-01-01T06:14:12.289Z,7.92
2023-01-01T06:16:39.548Z,8.10
2023-01-01T06:19:06.717Z,7.77
2023-01-01T06:21:38.156Z,8.10
2023-01-01T06:24:05.520Z,8.13
2023-01-01T06:26:33.302Z,8.16
2023-01-01T06:29:01.252Z,8.37
2023-01-01T06:31:28.894Z,8.52
2023-01-01T06:33:56.113Z,8.11
2023-01-01T06:36:23.755Z,8.10
2023-01-01T06:38:53.091Z,7.90
2023-01-01T06:41:21.831Z,7.78
2023-01-01T06:43:48.839Z,8.00
2023-01-01T06:46:30.116Z,7.95
2023-01-01T06:48:59.363Z,7.58
2023-01-01T06:51:29.447Z,8.07
2023-01-01T06:54:00.039Z,7.77
2023-01-01T06:56:27.417Z,7.93
2023-01-01T06:58:53.893Z,7.93
2023-01-01T07:01:23.355Z,8.05
2023-01-01T07:04:19.362Z,7.94
2023-01-01T07:06:45.799Z,7.71
2023-01-01T07:09:12.424Z,7.67
2023-01-01T07:11:38.954Z,7.52
2023-01-01T07:14:05.488Z,7.77
2023-01-01T07:16:32.045Z,7.68
2023-01-01T07:18:58.603Z,8.04
2023-01-01T07:21:31.759Z,8.30
2023-01-01T07:24:02.993Z,8.39
2023-01-01T07:26:31.113Z,8.41
2023-01-01T07:29:04.682Z,8.34
2023-01-01T07:31:33.542Z,8.27
2023-01-01T07:34:00.176Z,8.58
2023-01-01T07:36:26.600Z,8.59
2023-01-01T07:38:53.050Z,8.15
2023-01-01T07:41:19.490Z,8.44
2023-01-01T07:43:46.005Z,8.07
2023-01-01T07:46:13.925Z,7.95
2023-01-01T07:48:40.540Z,7.86
2023-01-01T07:51:07.069Z,7.76
2023-01-01T07:53:33.892Z,8.12
2023-01-01T07:56:00.542Z,7.96
2023-01-01T07:58:27.062Z,7.86
2023-01-01T08:00:53.906Z,7.79
2023-01-01T08:03:20.466Z,8.06
2023-01-01T08:05:48.665Z,8.18
2023-01-01T08:08:15.196Z,8.08
2023-01-01T08:10:41.899Z,7.94
2023-01-01T08:13:08.926Z,8.17
2023-01-01T08:15:35.689Z,8.07
2023-01-01T08:18:04.535Z,8.11
2023-01-01T08:20:32.147Z,8.62
2023-01-01T08:23:06.933Z,8.07
2023-01-01T08:25:35.181Z,8.37
2023-01-01T08:28:01.831Z,8.04
2023-01-01T08:30:28.312Z,8.37
2023-01-01T08:32:54.935Z,8.61
2023-01-01T08:35:21.556Z,8.87
2023-01-01T08:37:48.010Z,8.95
2023-01-01T08:40:15.745Z,8.87
2023-01-01T08:42:42.205Z,9.03
2023-01-01T08:45:09.110Z,9.18
2023-01-01T08:47:35.625Z,9.22
2023-01-01T08:50:02.083Z,9.28
2023-01-01T08:52:28.606Z,8.89
2023-01-01T08:54:55.067Z,9.20
2023-01-01T08:57:21.620Z,9.29
2023-01-01T08:59:48.034Z,9.37
2023-01-01T09:02:14.597Z,9.36
2023-01-01T09:04:41.170Z,9.42
2023-01-01T09:07:07.626Z,9.04
2023-01-01T09:09:34.193Z,9.03
2023-01-01T09:12:05.941Z,9.16
2023-01-01T09:14:34.044Z,9.14
2023-01-01T09:17:01.219Z,9.08
2023-01-01T09:19:28.195Z,8.84
2023-01-01T09:21:55.023Z,8.76
2023-01-01T09:24:21.504Z,8.70
2023-01-01T09:26:48.261Z,8.73
2023-01-01T09:29:18.508Z,8.86
2023-01-01T09:31:45.601Z,8.95
2023-01-01T09:34:12.451Z,8.85
2023-01-01T09:36:39.141Z,9.04
2023-01-01T09:39:06.405Z,8.77
2023-01-01T09:41:57.434Z,9.08
2023-01-01T09:45:02.145Z,9.36
2023-01-01T09:47:42.718Z,9.30
2023-01-01T09:50:27.946Z,9.74
2023-01-01T09:53:04.616Z,10.23
2023-01-01T09:55:53.968Z,9.87
2023-01-01T09:58:27.499Z,10.09
2023-01-01T10:00:59.708Z,9.80
2023-01-01T10:03:51.317Z,10.26
2023-01-01T10:06:33.806Z,10.51
2023-01-01T10:09:12.591Z,10.75
2023-01-01T10:12:08.058Z,10.08
2023-01-01T10:14:38.520Z,10.16
2023-01-01T10:17:34.919Z,10.05
2023-01-01T10:20:07.341Z,10.41
2023-01-01T10:22:42.418Z,10.57
2023-01-01T10:25:21.436Z,10.46
2023-01-01T10:28:01.991Z,10.25
2023-01-01T10:30:29.713Z,10.35
2023-01-01T10:32:57.222Z,10.66
2023-01-01T10:35:35.402Z,10.44
2023-01-01T10:38:04.104Z,10.55
2023-01-01T10:40:31.601Z,10.29
2023-01-01T10:43:01.052Z,10.73
2023-01-01T10:45:38.121Z,10.67
2023-01-01T10:48:20.126Z,10.69
2023-01-01T10:50:56.881Z,10.71
2023-01-01T10:53:30.905Z,10.39
2023-01-01T10:55:59.498Z,10.52
2023-01-01T10:58:42.834Z,10.75
2023-01-01T11:01:20.628Z,10.48
2023-01-01T11:04:08.921Z,10.87
2023-01-01T11:06:38.368Z,11.09
2023-01-01T11:09:07.311Z,11.02
2023-01-01T11:11:44.122Z,11.07
2023-01-01T11:14:23.229Z,10.88
2023-01-01T11:16:49.960Z,10.91
2023-01-01T11:19:24.230Z,11.05
2023-01-01T11:21:50.818Z,11.06
2023-01-01T11:24:21.836Z,11.27
2023-01-01T11:26:54.851Z,11.20
2023-01-01T11:29:29.838Z,10.71
2023-01-01T11:32:00.688Z,11.56
2023-01-01T11:34:41.161Z,11.46
2023-01-01T11:37:28.643Z,11.17
2023-01-01T11:39:57.800Z,11.46
2023-01-01T11:42:30.681Z,11.06
2023-01-01T11:45:01.496Z,11.27
2023-01-01T11:47:38.010Z,11.66
2023-01-01T11:50:13.603Z,11.49
2023-01-01T11:52:49.053Z,11.59
2023-01-01T11:55:36.147Z,11.38
2023-01-01T11:58:25.809Z,11.24
2023-01-01T12:00:59.562Z,11.80
2023-01-01T12:03:34.933Z,11.76
2023-01-01T12:06:20.797Z,11.77
2023-01-01T12:08:55.047Z,11.40
2023-01-01T12:11:27.604Z,11.88
2023-01-01T12:14:05.057Z,11.54
2023-01-01T12:16:55.050Z,11.60
2023-01-01T12:19:27.599Z,11.45
2023-01-01T12:21:58.718Z,12.12
2023-01-01T12:24:33.010Z,12.15
2023-01-01T12:27:15.720Z,11.79
2023-01-01T12:29:48.480Z,12.11
2023-01-01T12:32:42.722Z,11.93
2023-01-01T12:35:30.851Z,11.64
2023-01-01T12:38:05.093Z,11.67
2023-01-01T12:40:55.046Z,12.04
2023-01-01T12:44:01.720Z,11.93
2023-01-01T12:46:43.110Z,11.74
2023-01-01T12:49:30.239Z,11.83
2023-01-01T12:52:15.287Z,11.61
2023-01-01T12:55:06.835Z,12.01
2023-01-01T12:58:21.880Z,11.65
2023-01-01T13:00:59.145Z,12.08
2023-01-01T13:03:32.703Z,12.18
2023-01-01T13:06:01.477Z,11.91
2023-01-01T13:08:31.395Z,12.67
2023-01-01T13:10:59.957Z,12.73
2023-01-01T13:13:26.761Z,12.52
2023-01-01T13:15:57.442Z,11.90
2023-01-01T13:18:29.251Z,11.91
2023-01-01T13:21:19.394Z,11.67
2023-01-01T13:23:47.031Z,11.74
2023-01-01T13:26:22.906Z,12.00
2023-01-01T13:28:58.561Z,12.05
2023-01-01T13:31:41.954Z,11.78
2023-01-01T13:34:37.597Z,12.30
2023-01-01T13:37:12.700Z,12.52
2023-01-01T13:39:56.542Z,11.76
2023-01-01T13:43:04.298Z,11.60
2023-01-01T13:46:11.198Z,11.45
2023-01-01T13:48:48.469Z,11.41
2023-01-01T13:54:44.296Z,11.63
2023-01-01T13:57:23.682Z,11.87
2023-01-01T14:00:11.415Z,11.51
2023-01-01T14:03:06.376Z,11.58
2023-01-01T14:05:38.011Z,12.20
2023-01-01T14:08:09.962Z,12.10
2023-01-01T14:10:39.538Z,11.90
2023-01-01T14:13:06.010Z,11.92
2023-01-01T14:15:34.047Z,11.97
2023-01-01T14:18:04.452Z,11.77
2023-01-01T14:20:52.436Z,12.33
2023-01-01T14:23:28.321Z,11.83
2023-01-01T14:25:54.982Z,11.93
2023-01-01T14:28:27.659Z,12.15
2023-01-01T14:30:55.891Z,11.89
2023-01-01T14:33:33.419Z,12.04
2023-01-01T14:36:02.460Z,12.02
2023-01-01T14:38:34.607Z,12.30
2023-01-01T14:41:14.026Z,11.79
2023-01-01T14:43:43.053Z,12.04
2023-01-01T14:46:16.586Z,11.87
2023-01-01T14:48:49.677Z,12.19
2023-01-01T14:51:22.982Z,12.09
2023-01-01T14:53:51.842Z,12.30
2023-01-01T14:56:28.155Z,11.90
2023-01-01T14:59:21.330Z,11.97
2023-01-01T15:02:00.595Z,11.35
2023-01-01T15:04:27.752Z,11.80
2023-01-01T15:06:56.731Z,11.95
2023-01-01T15:09:23.647Z,12.04
2023-01-01T15:11:56.780Z,11.37
2023-01-01T15:14:37.599Z,11.79
2023-01-01T15:17:12.180Z,11.76
2023-01-01T15:19:41.421Z,11.73
2023-01-01T15:22:10.880Z,11.76
2023-01-01T15:24:38.365Z,11.85
2023-01-01T15:27:07.057Z,11.80
2023-01-01T15:29:39.932Z,12.20
2023-01-01T15:32:23.066Z,12.00
2023-01-01T15:34:52.565Z,12.10
2023-01-01T15:37:21.143Z,11.91
2023-01-01T15:39:53.204Z,12.09
2023-01-01T15:42:33.897Z,12.06
2023-01-01T15:45:28.327Z,12.11
2023-01-01T15:47:55.923Z,12.27
2023-01-01T15:50:45.383Z,12.41
2023-01-01T15:53:18.477Z,12.16
2023-01-01T15:55:50.584Z,11.74
2023-01-01T15:58:26.426Z,11.91
2023-01-01T16:01:02.556Z,12.16
2023-01-01T16:03:31.750Z,11.77
2023-01-01T16:05:58.398Z,11.77
2023-01-01T16:08:26.424Z,12.11
2023-01-01T16:10:53.198Z,11.83
2023-01-01T16:13:19.652Z,12.07
2023-01-01T16:15:58.293Z,12.11
2023-01-01T16:18:30.763Z,11.60
2023-01-01T16:20:57.590Z,11.76
2023-01-01T16:23:24.106Z,12.11
2023-01-01T16:25:50.633Z,12.07
2023-01-01T16:28:17.262Z,12.22
2023-01-01T16:30:44.353Z,12.33
2023-01-01T16:33:15.772Z,12.11
2023-01-01T16:35:46.428Z,12.26
2023-01-01T16:38:12.902Z,12.31
2023-01-01T16:40:39.510Z,11.97
2023-01-01T16:43:09.682Z,12.25
2023-01-01T16:45:36.171Z,12.30
2023-01-01T16:48:02.753Z,12.27
2023-01-01T16:50:29.264Z,12.22
2023-01-01T16:52:55.726Z,12.28
2023-01-01T16:55:23.294Z,12.24
2023-01-01T16:57:49.774Z,12.12
2023-01-01T17:00:16.508Z,11.61
2023-01-01T17:02:43.194Z,11.09
2023-01-01T17:05:10.635Z,11.16
2023-01-01T17:07:37.142Z,11.13
2023-01-01T17:10:04.440Z,11.61
2023-01-01T17:12:31.512Z,11.81
2023-01-01T17:14:58.205Z,12.01
2023-01-01T17:17:26.524Z,11.76
2023-01-01T17:19:52.951Z,11.97
2023-01-01T17:22:21.196Z,11.99
2023-01-01T17:24:47.685Z,12.03
2023-01-01T17:27:14.177Z,12.20
2023-01-01T17:29:40.644Z,12.28
2023-01-01T17:32:07.475Z,12.31
2023-01-01T17:34:34.417Z,12.29
2023-01-01T17:37:01.152Z,12.05
2023-01-01T17:39:29.671Z,11.82
2023-01-01T17:41:57.933Z,11.98
2023-01-01T17:44:24.602Z,12.16
2023-01-01T17:49:58.529Z,12.12
2023-01-01T17:52:25.235Z,12.36
2023-01-01T17:54:51.881Z,12.58
2023-01-01T17:57:19.127Z,12.75
2023-01-01T17:59:45.916Z,12.84
2023-01-01T18:02:17.443Z,12.78
2023-01-01T18:04:47.595Z,12.64
2023-01-01T18:07:16.901Z,12.42
2023-01-01T18:09:50.307Z,12.42
2023-01-01T18:12:19.227Z,12.62
2023-01-01T18:14:45.735Z,12.65
2023-01-01T18:17:12.489Z,12.64
2023-01-01T18:19:39.057Z,12.68
2023-01-01T18:22:06.648Z,12.44
2023-01-01T18:24:33.202Z,12.37
2023-01-01T18:26:59.673Z,12.39
2023-01-01T18:29:26.135Z,12.39
2023-01-01T18:31:52.682Z,12.45
2023-01-01T18:34:19.275Z,12.36
2023-01-01T18:36:46.988Z,12.36
2023-01-01T18:39:33.232Z,12.39
2023-01-01T18:42:29.483Z,12.31
2023-01-01T18:45:08.563Z,12.34
2023-01-01T18:47:35.015Z,12.20
2023-01-01T18:50:29.859Z,12.16
2023-01-01T18:53:11.546Z,12.13
2023-01-01T18:55:38.612Z,12.05
2023-01-01T18:58:22.211Z,12.08
2023-01-01T19:00:53.145Z,12.11
2023-01-01T19:03:29.073Z,12.00
2023-01-01T19:05:57.916Z,11.86
2023-01-01T19:08:28.491Z,11.92
2023-01-01T19:11:00.214Z,11.93
2023-01-01T19:13:40.351Z,12.01
2023-01-01T19:16:19.828Z,11.90
2023-01-01T19:18:49.094Z,11.81
2023-01-01T19:21:23.092Z,11.77
2023-01-01T19:24:02.090Z,11.77
2023-01-01T19:26:34.011Z,11.77
2023-01-01T19:29:19.831Z,11.36
2023-01-01T19:31:51.963Z,11.63
2023-01-01T19:34:19.053Z,11.65
2023-01-01T19:36:46.315Z,11.41
2023-01-01T19:39:14.984Z,11.45
2023-01-01T19:41:41.688Z,11.48
2023-01-01T19:44:10.398Z,11.65
2023-01-01T19:46:40.590Z,11.65
2023-01-01T19:49:08.464Z,11.66
2023-01-01T19:51:35.143Z,11.59
2023-01-01T19:54:02.006Z,11.64
2023-01-01T19:56:28.560Z,11.66
2023-01-01T19:58:57.396Z,11.64
2023-01-01T20:01:24.186Z,11.51
2023-01-01T20:03:55.726Z,11.60
2023-01-01T20:06:23.844Z,11.65
2023-01-01T20:08:51.395Z,11.70
2023-01-01T20:11:17.868Z,11.68
2023-01-01T20:13:44.650Z,11.71
2023-01-01T20:16:11.386Z,11.71
2023-01-01T20:18:53.306Z,11.71
2023-01-01T20:21:38.565Z,11.65
2023-01-01T20:24:05.683Z,11.61
2023-01-01T20:26:38.370Z,11.55
2023-01-01T20:29:20.145Z,11.56
2023-01-01T20:31:47.847Z,11.49
2023-01-01T20:34:14.412Z,11.30
2023-01-01T20:37:00.137Z,11.33
2023-01-01T20:39:26.779Z,10.42
2023-01-01T20:41:53.990Z,10.86
2023-01-01T20:44:20.980Z,11.07
2023-01-01T20:46:48.286Z,11.31
2023-01-01T20:49:17.088Z,11.33
2023-01-01T20:51:49.842Z,11.36
2023-01-01T20:54:16.844Z,11.46
2023-01-01T20:56:44.065Z,11.47
2023-01-01T20:59:34.087Z,11.45
2023-01-01T21:01:59.964Z,11.36
2023-01-01T21:04:26.785Z,11.34
2023-01-01T21:06:53.895Z,11.38
2023-01-01T21:09:20.414Z,11.33
2023-01-01T21:11:47.874Z,11.37
2023-01-01T21:14:14.443Z,11.43
2023-01-01T21:16:44.860Z,11.53
2023-01-01T21:19:12.454Z,11.33
2023-01-01T21:21:48.233Z,11.29
2023-01-01T21:24:21.366Z,11.48
2023-01-01T21:26:50.021Z,11.48
2023-01-01T21:29:19.735Z,11.51
2023-01-01T21:31:50.044Z,11.46
2023-01-01T21:34:38.986Z,11.46
2023-01-01T21:37:13.934Z,11.43
2023-01-01T21:39:41.700Z,11.37
2023-01-01T21:42:24.543Z,11.28
2023-01-01T21:44:57.556Z,11.05
2023-01-01T21:47:25.995Z,11.03
2023-01-01T21:49:56.372Z,11.03
2023-01-01T21:52:25.838Z,10.57
2023-01-01T21:54:53.238Z,10.84
2023-01-01T21:57:23.550Z,10.64
2023-01-01T21:59:51.762Z,10.56
2023-01-01T22:02:32.086Z,10.61
2023-01-01T22:05:01.515Z,10.41
2023-01-01T22:10:25.408Z,10.32
2023-01-01T22:12:57.673Z,10.48
2023-01-01T22:15:27.581Z,10.18
2023-01-01T22:18:20.596Z,10.22
2023-01-01T22:20:47.659Z,10.20
2023-01-01T22:23:27.963Z,10.41
2023-01-01T22:25:54.613Z,10.43
2023-01-01T22:28:27.361Z,10.51
2023-01-01T22:30:59.049Z,10.72
2023-01-01T22:33:41.871Z,10.65
2023-01-01T22:36:19.587Z,10.71
2023-01-01T22:38:46.640Z,10.40
2023-01-01T22:41:14.288Z,10.47
2023-01-01T22:43:46.722Z,10.71
2023-01-01T22:46:17.882Z,10.55
2023-01-01T22:49:21.299Z,10.56
2023-01-01T22:51:51.589Z,10.70
2023-01-01T22:54:18.419Z,10.30
2023-01-01T22:56:45.098Z,10.43
2023-01-01T22:59:11.654Z,10.32
